Search for airport 
image banner adimage banner adimage banner ad
image banner ad

4CA9 - Randy Champe-Gary Howe Memorial

Located in Los Angeles, United States

ICAO - 4CA9, IATA -

Data provided by Airmate  

General information

Coordinates: N33°58'12" W118°16'39"
Elevation is 184 feet MSL.
Magnetic variation is 14° East
View others Airports in California

Operational data

Special qualification required
Current time UTC:
Current local time:
METAR: KHHR 292153Z 26012KT 10SM CLR 25/14 A2989 RMK AO2 SLP121 T02500144
View NOTAMs / SUP AIP / TFR affecting this airport [VIEW]
Communications frequencies: [VIEW]

Runways:

Airport contact information

Address: Los Angeles United States

Satellite view of 4CA9